Lemmer, Netherlands
Current Conditions -  °F | °C
As of 7:29 AM on Friday 19 Dec 2014 (Local Time) from EHLW Reporting Station
Heavy Rain Heavy Rain  
Wind Chill: 10°   Ceiling: 1500
Heat Index: 10°   Visibility: 2.6mi
Dew Point:   Wind: 14mph
Humidity: 94%   Direction: 290°WNW
Pressure: 29.62"   Gusts: NA
Location:  52.85°N, 5.71°E
Report Text: EHLW 190629Z AUTO 29012KT 4300 +DZRA SCT004 BKN015 BKN018 10/09 Q1003 RERA REDZ YLO
Loading
Personal Weather Stations






























Interactive Weather Map New forecast layout! Learn more

10-Day Weather Forecast

Advertisements
Track Severe Weather on mobile